Time;durP1;ratioP1;P1;durP2;ratioP2;P2;SDS_P1;SDS_P2;PMS_P1;PMS_P2;Temp;Humidity;BMP_temperature;BMP_pressure;BME280_temperature;BME280_humidity;BME280_pressure;Samples;Min_cycle;Max_cycle;Signal;HPM_P1;HPM_P2
2023/08/26 00:00:48;;;;;;;9.10;5.97;;;18.50;99.90;;;;;;5033521;28;20449;-60
2023/08/26 00:03:14;;;;;;;8.30;6.57;;;18.50;99.90;;;;;;5033770;28;20958;-61
2023/08/26 00:05:43;;;;;;;8.80;7.37;;;18.40;99.90;;;;;;5033543;28;20476;-61
2023/08/26 00:08:10;;;;;;;7.93;7.23;;;18.40;99.90;;;;;;5033732;28;20993;-61
2023/08/26 00:10:37;;;;;;;7.73;6.17;;;18.40;99.90;;;;;;5033621;28;20447;-61
2023/08/26 00:13:04;;;;;;;6.13;5.50;;;18.40;99.90;;;;;;5033554;28;20437;-60
2023/08/26 00:15:30;;;;;;;7.83;7.13;;;18.40;99.90;;;;;;5033248;28;20467;-60
2023/08/26 00:17:57;;;;;;;6.67;6.00;;;18.50;99.90;;;;;;5033152;28;21025;-60
2023/08/26 00:20:24;;;;;;;6.80;6.10;;;18.50;99.90;;;;;;5033509;28;20447;-60
2023/08/26 00:22:52;;;;;;;8.27;7.17;;;18.50;99.90;;;;;;5033442;28;20441;-60
2023/08/26 00:25:19;;;;;;;7.80;7.03;;;18.50;99.90;;;;;;5033558;28;20457;-60
2023/08/26 00:27:45;;;;;;;7.20;6.50;;;18.60;99.90;;;;;;5035316;28;20437;-61
2023/08/26 00:30:12;;;;;;;9.87;8.03;;;18.60;99.90;;;;;;5037467;28;20445;-60
2023/08/26 00:32:39;;;;;;;8.30;7.13;;;18.50;99.90;;;;;;5037354;28;20448;-61
2023/08/26 00:35:06;;;;;;;11.10;7.33;;;18.50;99.90;;;;;;5037399;28;20468;-60
2023/08/26 00:37:33;;;;;;;9.93;8.60;;;18.50;99.90;;;;;;5037221;28;20477;-60
2023/08/26 00:40:02;;;;;;;9.00;8.10;;;18.50;99.90;;;;;;5038181;28;20449;-61
2023/08/26 00:42:28;;;;;;;8.67;7.90;;;18.50;99.90;;;;;;5037999;28;20441;-60
2023/08/26 00:44:55;;;;;;;9.10;8.20;;;18.50;99.90;;;;;;5037327;28;20471;-61
2023/08/26 00:47:22;;;;;;;9.47;8.43;;;18.40;99.90;;;;;;5037133;28;20436;-60
2023/08/26 00:49:49;;;;;;;10.27;8.97;;;18.40;99.90;;;;;;5037395;28;20441;-60
2023/08/26 00:52:15;;;;;;;12.13;10.87;;;18.40;99.90;;;;;;5037224;28;20449;-60
2023/08/26 00:54:42;;;;;;;13.40;10.60;;;18.40;99.90;;;;;;5037232;28;20465;-60
2023/08/26 00:57:11;;;;;;;14.57;11.70;;;18.40;99.90;;;;;;5037198;28;20998;-60
2023/08/26 00:59:38;;;;;;;14.40;11.47;;;18.40;99.90;;;;;;5036877;28;20806;-61
2023/08/26 01:02:05;;;;;;;11.43;10.33;;;18.40;99.90;;;;;;5036300;28;20888;-60
2023/08/26 01:04:32;;;;;;;17.10;12.07;;;18.50;99.90;;;;;;5036461;28;20437;-61
2023/08/26 01:06:59;;;;;;;17.60;14.00;;;18.50;99.90;;;;;;5037084;28;20433;-60
2023/08/26 01:09:26;;;;;;;18.17;13.80;;;18.50;99.90;;;;;;5037092;28;20487;-61
2023/08/26 01:12:01;;;;;;;17.43;14.67;;;18.50;99.90;;;;;;5036299;28;20444;-60
2023/08/26 01:14:34;;;;;;;18.83;15.27;;;18.50;99.90;;;;;;5036209;28;20427;-61
2023/08/26 01:17:03;;;;;;;18.97;13.63;;;18.50;99.90;;;;;;5036340;28;20475;-60
2023/08/26 01:19:33;;;;;;;14.80;13.30;;;18.60;99.90;;;;;;5036025;28;20942;-61
2023/08/26 01:22:03;;;;;;;15.63;13.80;;;18.50;99.90;;;;;;5036312;28;20448;-61
2023/08/26 01:24:32;;;;;;;20.50;15.27;;;18.50;99.90;;;;;;5036191;28;20452;-61
2023/08/26 01:26:58;;;;;;;21.07;16.30;;;18.50;99.90;;;;;;5036593;28;20444;-61
2023/08/26 01:29:26;;;;;;;19.07;16.70;;;18.50;99.90;;;;;;5035880;28;20437;-60
2023/08/26 01:32:01;;;;;;;23.00;18.20;;;18.50;99.90;;;;;;5036210;28;20444;-61
2023/08/26 01:34:30;;;;;;;23.50;19.00;;;18.50;99.90;;;;;;5036041;28;20425;-61
2023/08/26 01:37:00;;;;;;;24.97;20.10;;;18.50;99.90;;;;;;5036689;28;20488;-61
2023/08/26 01:39:28;;;;;;;24.80;20.77;;;18.50;99.90;;;;;;5035927;28;20462;-60
2023/08/26 01:41:59;;;;;;;27.00;20.80;;;18.60;99.90;;;;;;5036014;28;20445;-60
2023/08/26 01:44:27;;;;;;;31.77;22.73;;;18.60;99.90;;;;;;5036516;28;20421;-61
2023/08/26 01:46:55;;;;;;;29.90;22.50;;;18.50;99.90;;;;;;5036381;28;20433;-60
2023/08/26 01:49:23;;;;;;;28.63;21.70;;;18.50;99.90;;;;;;5036739;28;20437;-60
2023/08/26 01:51:50;;;;;;;28.33;22.23;;;18.50;99.90;;;;;;5036358;28;20449;-61
2023/08/26 01:54:17;;;;;;;29.47;25.70;;;18.50;99.90;;;;;;5037212;28;20437;-62
2023/08/26 01:56:43;;;;;;;35.13;26.33;;;18.50;99.90;;;;;;5036250;28;20437;-61
2023/08/26 01:59:11;;;;;;;31.90;24.67;;;18.50;99.90;;;;;;5036031;28;20809;-60
2023/08/26 02:01:39;;;;;;;30.10;24.20;;;18.50;99.90;;;;;;5036788;28;20452;-61
2023/08/26 02:04:05;;;;;;;31.07;25.03;;;18.50;99.90;;;;;;5036496;28;20448;-61
2023/08/26 02:06:32;;;;;;;34.93;25.10;;;18.50;99.90;;;;;;5075426;22;20502;-62
2023/08/26 02:09:00;;;;;;;38.23;29.63;;;18.40;99.90;;;;;;5055325;28;20444;-62
2023/08/26 02:11:26;;;;;;;37.63;27.23;;;18.40;99.90;;;;;;5055339;28;20446;-62
2023/08/26 02:13:53;;;;;;;36.07;29.30;;;18.40;99.90;;;;;;5055154;28;20447;-62
2023/08/26 02:16:21;;;;;;;33.97;28.13;;;18.40;99.90;;;;;;5054894;28;20460;-62
2023/08/26 02:18:48;;;;;;;31.77;27.73;;;18.40;99.90;;;;;;5055288;28;20486;-63
2023/08/26 02:21:15;;;;;;;36.53;26.70;;;18.40;99.90;;;;;;5055515;28;20451;-62
2023/08/26 02:23:41;;;;;;;37.50;28.57;;;18.30;99.90;;;;;;5054813;28;20440;-61
2023/08/26 02:26:08;;;;;;;41.87;28.60;;;18.30;99.90;;;;;;5054711;28;20470;-61
2023/08/26 02:28:35;;;;;;;35.63;30.30;;;18.40;99.90;;;;;;5054672;28;20443;-61
2023/08/26 02:31:02;;;;;;;35.80;29.90;;;18.30;99.90;;;;;;5054623;28;20440;-62
2023/08/26 02:33:30;;;;;;;39.73;30.17;;;18.30;99.90;;;;;;5055126;28;20444;-62
2023/08/26 02:35:57;;;;;;;40.70;31.37;;;18.30;99.90;;;;;;5055049;28;20478;-62
2023/08/26 02:38:24;;;;;;;37.73;32.03;;;18.20;99.90;;;;;;5055361;28;20479;-62
2023/08/26 02:40:55;;;;;;;51.90;33.00;;;18.20;99.90;;;;;;5055003;28;20448;-62
2023/08/26 02:43:22;;;;;;;43.80;31.87;;;18.20;99.90;;;;;;5055095;28;20848;-62
2023/08/26 02:45:53;;;;;;;41.30;33.23;;;18.20;99.90;;;;;;5054365;28;20460;-62
2023/08/26 02:48:19;;;;;;;43.67;32.63;;;18.20;99.90;;;;;;5054412;28;20428;-62
2023/08/26 02:50:48;;;;;;;41.40;31.37;;;18.20;99.90;;;;;;5053129;28;20805;-62
2023/08/26 02:53:15;;;;;;;43.27;32.47;;;18.30;99.90;;;;;;5054449;28;20436;-62
2023/08/26 02:55:41;;;;;;;39.43;32.00;;;18.30;99.90;;;;;;5054241;28;20459;-62
2023/08/26 02:58:08;;;;;;;43.40;32.70;;;18.30;99.90;;;;;;5057157;28;20478;-62
2023/08/26 03:00:35;;;;;;;39.13;32.23;;;18.40;99.90;;;;;;5057889;28;20447;-62
2023/08/26 03:03:02;;;;;;;35.83;29.00;;;18.40;99.90;;;;;;5055425;28;20470;-62
2023/08/26 03:05:28;;;;;;;37.60;30.50;;;18.50;99.90;;;;;;5055820;28;20980;-64
2023/08/26 03:07:56;;;;;;;43.03;33.03;;;18.50;99.90;;;;;;5059610;28;20447;-63
2023/08/26 03:10:23;;;;;;;39.50;31.93;;;18.50;99.90;;;;;;5055406;28;20436;-63
2023/08/26 03:12:50;;;;;;;41.13;31.30;;;18.60;99.90;;;;;;5053638;28;20885;-63
2023/08/26 03:15:17;;;;;;;43.87;31.10;;;18.60;99.90;;;;;;5053719;28;20456;-63
2023/08/26 03:17:45;;;;;;;37.17;30.27;;;18.60;99.90;;;;;;5053356;28;20942;-63
2023/08/26 03:20:12;;;;;;;36.00;29.10;;;18.60;99.90;;;;;;5053378;28;20443;-63
2023/08/26 03:22:39;;;;;;;33.10;29.20;;;18.50;99.90;;;;;;5053584;28;20440;-63
2023/08/26 03:25:08;;;;;;;40.43;31.77;;;18.50;99.90;;;;;;5053152;28;21006;-63
2023/08/26 03:27:34;;;;;;;34.63;29.23;;;18.50;99.90;;;;;;5053605;28;20432;-63
2023/08/26 03:30:01;;;;;;;36.50;30.60;;;18.40;99.90;;;;;;5053369;28;20436;-63
2023/08/26 03:32:28;;;;;;;37.07;29.77;;;18.40;99.90;;;;;;5053154;28;20437;-63
2023/08/26 03:34:54;;;;;;;43.70;32.70;;;18.40;99.90;;;;;;5053820;28;20460;-63
2023/08/26 03:37:21;;;;;;;37.93;30.40;;;18.40;99.90;;;;;;5053239;28;20446;-63
2023/08/26 03:39:48;;;;;;;41.27;32.43;;;18.40;99.90;;;;;;5053186;28;20447;-63
2023/08/26 03:42:16;;;;;;;43.77;32.97;;;18.50;99.90;;;;;;5053284;28;20435;-63
2023/08/26 03:44:43;;;;;;;41.27;32.50;;;18.50;99.90;;;;;;5053085;28;20440;-63
2023/08/26 03:47:10;;;;;;;43.13;34.50;;;18.50;99.90;;;;;;5053084;28;20439;-63
2023/08/26 03:49:36;;;;;;;37.90;30.60;;;18.50;99.90;;;;;;5052710;28;20981;-63
2023/08/26 03:52:04;;;;;;;38.87;32.23;;;18.60;99.90;;;;;;5053132;28;20547;-64
2023/08/26 03:54:31;;;;;;;38.30;31.53;;;18.60;99.90;;;;;;5053011;28;20447;-63
2023/08/26 03:56:57;;;;;;;37.00;30.67;;;18.50;99.90;;;;;;5052953;28;20464;-63
2023/08/26 03:59:25;;;;;;;41.33;32.40;;;18.50;99.90;;;;;;5052515;28;20486;-63
2023/08/26 04:01:52;;;;;;;39.53;34.30;;;18.50;99.90;;;;;;5052370;28;20447;-63
2023/08/26 04:04:19;;;;;;;37.40;31.50;;;18.50;99.90;;;;;;5052686;28;20454;-63
2023/08/26 04:06:45;;;;;;;39.23;32.63;;;18.50;99.90;;;;;;5052276;28;20479;-63
2023/08/26 04:12:08;;;;;;;40.63;33.20;;;18.40;99.90;;;;;;5090906;27;20534;-62
2023/08/26 04:14:34;;;;;;;41.90;33.20;;;18.40;99.90;;;;;;5090274;28;20446;-63
2023/08/26 04:17:03;;;;;;;43.10;32.90;;;18.40;99.90;;;;;;5090433;28;20441;-63
2023/08/26 04:19:30;;;;;;;41.53;34.20;;;18.40;99.90;;;;;;5090331;28;20547;-63
2023/08/26 04:21:58;;;;;;;46.10;34.10;;;18.40;99.90;;;;;;5090061;28;20946;-62
2023/08/26 04:24:24;;;;;;;41.27;33.73;;;18.40;99.90;;;;;;5090170;28;20438;-63
2023/08/26 04:26:51;;;;;;;38.80;33.27;;;18.40;99.90;;;;;;5090245;28;20454;-62
2023/08/26 04:29:19;;;;;;;43.43;32.20;;;18.40;99.90;;;;;;5091010;28;20438;-63
2023/08/26 04:31:46;;;;;;;37.63;30.73;;;18.30;99.90;;;;;;5090175;28;20481;-63
2023/08/26 04:34:12;;;;;;;40.40;31.17;;;18.30;99.90;;;;;;5090190;28;20443;-63
2023/08/26 04:36:39;;;;;;;38.60;31.80;;;18.30;99.90;;;;;;5089953;28;20485;-63
2023/08/26 04:39:11;;;;;;;37.77;28.37;;;18.20;99.90;;;;;;5090094;28;20449;-63
2023/08/26 04:41:37;;;;;;;32.97;28.53;;;18.20;99.90;;;;;;5089911;28;20423;-63
2023/08/26 04:44:05;;;;;;;35.00;29.10;;;18.20;99.90;;;;;;5089478;28;20438;-63
2023/08/26 04:46:33;;;;;;;40.13;29.13;;;18.20;99.90;;;;;;5089599;28;20460;-62
2023/08/26 04:49:00;;;;;;;31.70;27.40;;;18.20;99.90;;;;;;5089843;28;20449;-63
2023/08/26 04:51:26;;;;;;;32.77;28.07;;;18.20;99.90;;;;;;5089800;28;20501;-63
2023/08/26 04:53:53;;;;;;;35.00;28.10;;;18.30;99.90;;;;;;5089726;28;20517;-62
2023/08/26 04:56:20;;;;;;;37.83;26.83;;;18.30;99.90;;;;;;5089541;28;20463;-63
2023/08/26 04:58:47;;;;;;;30.03;25.77;;;18.30;99.90;;;;;;5089421;28;20465;-64
2023/08/26 05:01:13;;;;;;;33.27;24.57;;;18.30;99.90;;;;;;5089269;28;20434;-64
2023/08/26 05:03:41;;;;;;;27.23;24.23;;;18.40;99.90;;;;;;5089393;28;20815;-62
2023/08/26 05:06:08;;;;;;;29.33;23.50;;;18.40;99.90;;;;;;5089495;28;20492;-64
2023/08/26 05:08:35;;;;;;;26.93;24.00;;;18.40;99.90;;;;;;5089491;28;20461;-62
2023/08/26 05:11:03;;;;;;;28.57;23.47;;;18.40;99.90;;;;;;5088957;28;20477;-62
2023/08/26 05:13:30;;;;;;;27.67;23.23;;;18.40;99.90;;;;;;5089599;28;20465;-62
2023/08/26 05:15:56;;;;;;;26.53;22.67;;;18.50;99.90;;;;;;5089661;28;20467;-64
2023/08/26 05:18:23;;;;;;;27.07;20.87;;;18.50;99.90;;;;;;5089063;28;20434;-64
2023/08/26 05:20:51;;;;;;;25.73;20.70;;;18.60;99.90;;;;;;5089157;28;20431;-64
2023/08/26 05:23:18;;;;;;;26.43;22.17;;;18.70;99.90;;;;;;5076682;28;20963;-64
2023/08/26 05:25:46;;;;;;;26.37;20.20;;;18.80;99.90;;;;;;5075681;28;20474;-64
2023/08/26 05:28:13;;;;;;;25.53;21.10;;;18.90;99.90;;;;;;5075809;28;20442;-64
2023/08/26 05:30:40;;;;;;;22.23;19.73;;;19.10;99.90;;;;;;5076305;28;20481;-64
2023/08/26 05:33:07;;;;;;;24.83;21.10;;;19.20;99.90;;;;;;5075594;28;20471;-64
2023/08/26 05:35:33;;;;;;;21.73;19.17;;;19.30;99.90;;;;;;5075302;28;20972;-64
2023/08/26 05:38:01;;;;;;;21.37;19.10;;;19.30;99.90;;;;;;5076599;28;20447;-64
2023/08/26 05:40:29;;;;;;;20.50;18.40;;;19.40;99.90;;;;;;5077577;28;20514;-64
2023/08/26 05:42:56;;;;;;;21.27;18.00;;;19.50;99.90;;;;;;5080231;28;20455;-64
2023/08/26 05:45:23;;;;;;;20.30;17.50;;;19.70;99.90;;;;;;5080435;28;20462;-65
2023/08/26 05:47:50;;;;;;;21.27;16.33;;;19.80;99.90;;;;;;5080180;28;20944;-64
2023/08/26 05:50:17;;;;;;;24.10;18.93;;;19.90;99.90;;;;;;5080721;28;20438;-64
2023/08/26 05:52:44;;;;;;;19.47;16.70;;;19.90;99.90;;;;;;5076774;28;20446;-64
2023/08/26 05:55:12;;;;;;;19.63;16.90;;;19.90;99.90;;;;;;5075481;28;20837;-65
2023/08/26 05:57:40;;;;;;;19.43;17.43;;;19.90;99.90;;;;;;5075758;28;20442;-64
2023/08/26 06:00:08;;;;;;;19.70;16.53;;;19.90;99.90;;;;;;5075763;28;20439;-64
2023/08/26 06:02:35;;;;;;;23.37;18.07;;;19.80;99.90;;;;;;5075978;28;20435;-65
2023/08/26 06:05:02;;;;;;;17.83;15.93;;;19.80;99.90;;;;;;5074702;28;20466;-64
2023/08/26 06:07:29;;;;;;;17.57;15.77;;;19.80;99.90;;;;;;5074964;28;20443;-64
2023/08/26 06:09:56;;;;;;;19.90;16.40;;;19.70;99.90;;;;;;5074602;28;20821;-64
2023/08/26 06:12:24;;;;;;;18.33;16.10;;;19.70;99.90;;;;;;5075031;28;20472;-64
2023/08/26 06:14:51;;;;;;;16.93;15.13;;;19.80;99.90;;;;;;5074936;28;20451;-64
2023/08/26 06:17:17;;;;;;;17.67;15.60;;;19.90;99.90;;;;;;5074776;28;20435;-64
2023/08/26 06:19:44;;;;;;;20.60;15.63;;;19.90;99.90;;;;;;5074771;28;20439;-64
2023/08/26 06:22:11;;;;;;;18.40;14.67;;;20.00;99.90;;;;;;5074713;28;20443;-64
2023/08/26 06:24:37;;;;;;;16.00;14.30;;;20.00;99.90;;;;;;5074190;28;20446;-65
2023/08/26 06:27:06;;;;;;;16.83;14.43;;;20.10;99.90;;;;;;5074643;28;20431;-64
2023/08/26 06:29:34;;;;;;;15.83;13.87;;;20.20;99.90;;;;;;5074706;28;20435;-64
2023/08/26 06:32:00;;;;;;;16.67;14.87;;;20.30;99.90;;;;;;5074494;28;20471;-64
2023/08/26 06:34:27;;;;;;;15.50;13.67;;;20.50;99.90;;;;;;5073520;28;20439;-64
2023/08/26 06:36:54;;;;;;;16.23;13.47;;;20.70;99.90;;;;;;5074293;28;20459;-65
2023/08/26 06:39:20;;;;;;;14.40;12.90;;;20.80;99.90;;;;;;5074495;28;20447;-64
2023/08/26 06:41:47;;;;;;;13.27;11.90;;;21.00;99.90;;;;;;5074653;28;20451;-64
2023/08/26 06:44:14;;;;;;;13.87;12.47;;;21.00;99.90;;;;;;5074692;28;20447;-64
2023/08/26 06:46:42;;;;;;;14.30;12.70;;;21.10;99.90;;;;;;5074093;28;21003;-64
2023/08/26 06:49:09;;;;;;;13.73;12.27;;;21.00;99.90;;;;;;5074212;28;20443;-64
2023/08/26 06:51:36;;;;;;;16.03;12.73;;;20.90;99.90;;;;;;5074007;28;20570;-64
2023/08/26 06:54:03;;;;;;;19.10;14.33;;;20.80;99.90;;;;;;5073494;28;20439;-63
2023/08/26 06:56:30;;;;;;;16.03;13.80;;;20.70;99.90;;;;;;5073732;28;20459;-64
2023/08/26 06:58:58;;;;;;;9.53;8.63;;;20.70;99.90;;;;;;5073854;28;20443;-64
2023/08/26 07:01:25;;;;;;;10.43;6.70;;;20.40;99.90;;;;;;5073504;28;20988;-64
2023/08/26 07:03:53;;;;;;;4.93;4.50;;;20.20;99.90;;;;;;5073443;28;20998;-64
2023/08/26 07:06:21;;;;;;;7.00;4.07;;;19.90;99.90;;;;;;5073787;28;20588;-64
2023/08/26 07:08:48;;;;;;;4.83;3.80;;;19.70;99.90;;;;;;5073427;28;20451;-64
2023/08/26 07:11:15;;;;;;;8.43;4.43;;;19.50;99.90;;;;;;5073015;28;20902;-63
2023/08/26 07:13:42;;;;;;;17.07;4.23;;;19.50;99.90;;;;;;5073534;28;20450;-64
2023/08/26 07:16:08;;;;;;;4.50;3.50;;;19.50;99.90;;;;;;5073473;28;20470;-64
2023/08/26 07:18:35;;;;;;;3.80;3.37;;;19.60;99.90;;;;;;5073635;28;20443;-63
2023/08/26 07:21:03;;;;;;;4.40;2.80;;;19.70;98.60;;;;;;5073300;28;20431;-63
2023/08/26 07:23:30;;;;;;;6.00;2.60;;;19.80;97.00;;;;;;5073347;28;20443;-63
2023/08/26 07:25:56;;;;;;;2.80;2.60;;;19.80;94.30;;;;;;5073934;28;20455;-63
2023/08/26 07:28:23;;;;;;;3.63;2.40;;;19.70;92.10;;;;;;5073265;28;20443;-63
2023/08/26 07:30:51;;;;;;;3.77;2.10;;;19.60;90.70;;;;;;5073039;28;20435;-63
2023/08/26 07:33:17;;;;;;;2.70;1.87;;;19.60;88.50;;;;;;5073325;28;20462;-63
2023/08/26 07:35:44;;;;;;;2.70;1.90;;;19.50;84.60;;;;;;5073426;28;20463;-63
2023/08/26 07:38:12;;;;;;;2.70;1.63;;;19.40;82.90;;;;;;5073206;28;20447;-64
2023/08/26 07:40:40;;;;;;;2.57;1.50;;;19.30;80.60;;;;;;5073252;28;20447;-64
2023/08/26 07:43:06;;;;;;;1.47;1.37;;;19.20;79.80;;;;;;5072596;28;20530;-64
2023/08/26 07:45:33;;;;;;;2.83;1.63;;;19.10;76.50;;;;;;5072743;28;20463;-64
2023/08/26 07:48:00;;;;;;;2.17;1.87;;;18.90;76.00;;;;;;5073044;28;20479;-64
2023/08/26 07:50:27;;;;;;;3.20;1.63;;;18.80;74.80;;;;;;5072631;28;20439;-64
2023/08/26 07:52:53;;;;;;;2.10;1.10;;;18.70;75.00;;;;;;5073023;28;20493;-64
2023/08/26 07:55:22;;;;;;;2.23;1.40;;;18.70;74.20;;;;;;5072548;28;20988;-63
2023/08/26 07:57:48;;;;;;;4.03;2.00;;;18.70;74.30;;;;;;5072688;28;20439;-64
2023/08/26 08:00:15;;;;;;;4.67;1.57;;;18.80;74.70;;;;;;5072744;28;20435;-64
2023/08/26 08:02:42;;;;;;;1.50;1.40;;;19.00;74.60;;;;;;5072731;28;20944;-64
2023/08/26 08:05:09;;;;;;;2.60;1.30;;;19.10;74.10;;;;;;5072902;28;20464;-63
2023/08/26 08:07:36;;;;;;;4.70;1.40;;;19.20;73.50;;;;;;5104418;22;20473;-61
2023/08/26 08:10:03;;;;;;;6.67;1.57;;;19.20;73.50;;;;;;5054046;28;20566;-60
2023/08/26 08:12:32;;;;;;;2.03;1.40;;;19.30;72.80;;;;;;5054023;28;20479;-60
2023/08/26 08:14:58;;;;;;;5.73;1.70;;;19.30;72.20;;;;;;5055410;28;20451;-59
2023/08/26 08:17:25;;;;;;;2.73;1.00;;;19.40;71.20;;;;;;5053920;28;20444;-61
2023/08/26 08:19:52;;;;;;;3.07;1.03;;;19.40;70.40;;;;;;5055621;28;20440;-61
2023/08/26 08:22:22;;;;;;;2.77;1.43;;;19.40;69.20;;;;;;5055390;28;20807;-62
2023/08/26 08:24:48;;;;;;;3.13;1.17;;;19.40;68.80;;;;;;5055131;28;20523;-61
2023/08/26 08:27:15;;;;;;;3.33;1.47;;;19.40;68.50;;;;;;5053950;28;20444;-61
2023/08/26 08:29:43;;;;;;;2.50;1.00;;;19.40;68.30;;;;;;5053443;28;20439;-60
2023/08/26 08:32:10;;;;;;;2.80;1.30;;;19.50;68.50;;;;;;5053126;28;20482;-62
2023/08/26 08:34:37;;;;;;;3.43;1.30;;;19.50;68.30;;;;;;5053927;28;20447;-60
2023/08/26 08:37:04;;;;;;;2.57;1.37;;;19.60;68.60;;;;;;5054285;28;20462;-61
2023/08/26 08:39:31;;;;;;;2.93;1.57;;;19.60;68.10;;;;;;5053657;28;20475;-59
2023/08/26 08:42:01;;;;;;;2.73;1.37;;;19.70;68.10;;;;;;5053648;28;20439;-58
2023/08/26 08:44:32;;;;;;;2.53;1.40;;;19.70;67.60;;;;;;5054354;28;20952;-59
2023/08/26 08:47:03;;;;;;;1.30;1.00;;;19.70;67.20;;;;;;5053870;28;20796;-61
2023/08/26 08:49:30;;;;;;;2.00;1.03;;;19.80;66.10;;;;;;5054361;28;20806;-58
2023/08/26 08:51:58;;;;;;;2.60;1.47;;;19.80;65.80;;;;;;5053596;28;20476;-58
2023/08/26 08:54:26;;;;;;;2.63;1.20;;;19.80;64.90;;;;;;5054800;28;20440;-60
2023/08/26 08:56:53;;;;;;;3.63;1.40;;;19.80;64.20;;;;;;5054908;28;20965;-60
2023/08/26 08:59:21;;;;;;;3.17;1.63;;;19.70;63.10;;;;;;5058298;28;20874;-61
2023/08/26 09:01:48;;;;;;;1.60;0.90;;;19.70;63.30;;;;;;5058457;28;20432;-61
2023/08/26 09:04:16;;;;;;;2.27;1.20;;;19.80;63.30;;;;;;5058552;28;20459;-60
2023/08/26 09:06:43;;;;;;;2.73;1.60;;;19.90;62.40;;;;;;5057915;28;20448;-61
2023/08/26 09:09:11;;;;;;;3.07;1.30;;;20.00;63.00;;;;;;5057876;28;20831;-59
2023/08/26 09:11:38;;;;;;;2.30;1.20;;;20.10;62.80;;;;;;5058119;28;20565;-61
2023/08/26 09:14:05;;;;;;;3.27;1.53;;;20.30;62.60;;;;;;5058571;28;20451;-62
2023/08/26 09:16:35;;;;;;;2.70;1.50;;;20.30;62.40;;;;;;5057960;28;20455;-60
2023/08/26 09:19:02;;;;;;;3.13;1.30;;;20.40;62.60;;;;;;5057255;28;20471;-61
2023/08/26 09:21:30;;;;;;;1.60;1.10;;;20.50;61.50;;;;;;5057051;28;20448;-59
2023/08/26 09:23:57;;;;;;;3.50;1.27;;;20.50;60.90;;;;;;5058483;28;20466;-60
2023/08/26 09:26:24;;;;;;;1.63;1.30;;;20.30;60.60;;;;;;5056955;28;20435;-59
2023/08/26 09:28:51;;;;;;;4.30;1.50;;;20.30;59.90;;;;;;5056986;28;20463;-60
2023/08/26 09:31:19;;;;;;;5.67;1.33;;;20.20;59.20;;;;;;5057156;28;20447;-60
2023/08/26 09:33:50;;;;;;;1.60;1.33;;;20.10;59.50;;;;;;5057542;28;20440;-60
2023/08/26 09:36:17;;;;;;;2.00;1.20;;;20.10;59.20;;;;;;5057566;28;20436;-61
2023/08/26 09:38:47;;;;;;;2.37;1.00;;;20.20;59.30;;;;;;5057427;28;20510;-60
2023/08/26 09:41:19;;;;;;;3.73;1.37;;;20.40;59.30;;;;;;5057620;28;20441;-61
2023/08/26 09:43:46;;;;;;;4.67;1.70;;;20.60;59.40;;;;;;5057298;28;20845;-59
2023/08/26 09:46:19;;;;;;;1.70;1.20;;;21.00;59.10;;;;;;5057951;28;20828;-60
2023/08/26 09:48:46;;;;;;;3.70;1.30;;;21.20;58.30;;;;;;5057755;28;20774;-61
2023/08/26 09:51:24;;;;;;;2.43;1.40;;;21.30;57.60;;;;;;5057809;28;20447;-59
2023/08/26 09:53:54;;;;;;;2.90;1.60;;;21.40;57.20;;;;;;5057982;28;20431;-60
2023/08/26 09:56:22;;;;;;;3.30;1.30;;;21.60;57.20;;;;;;5058032;28;20433;-61
2023/08/26 09:58:49;;;;;;;3.60;1.20;;;21.80;56.70;;;;;;5058232;28;20464;-60
2023/08/26 10:01:18;;;;;;;3.50;1.23;;;21.80;55.40;;;;;;5056382;28;20855;-61
2023/08/26 10:03:50;;;;;;;4.10;1.40;;;21.70;55.50;;;;;;5057580;28;20432;-60
2023/08/26 10:06:18;;;;;;;3.97;1.87;;;21.70;55.70;;;;;;5057476;28;20460;-61
2023/08/26 10:08:48;;;;;;;2.03;1.10;;;21.90;55.60;;;;;;5057105;28;20468;-59
2023/08/26 10:11:21;;;;;;;2.97;1.23;;;22.10;54.80;;;;;;5056926;28;20451;-60
2023/08/26 10:13:51;;;;;;;2.60;1.40;;;22.10;53.90;;;;;;5057670;28;20537;-60
2023/08/26 10:16:19;;;;;;;2.33;1.07;;;22.00;54.30;;;;;;5057170;28;20468;-60
2023/08/26 10:18:50;;;;;;;2.83;1.33;;;21.90;54.50;;;;;;5056614;28;21036;-62
2023/08/26 10:21:18;;;;;;;2.80;1.03;;;21.90;54.70;;;;;;5056984;28;20861;-60
2023/08/26 10:23:45;;;;;;;3.07;1.40;;;22.00;54.80;;;;;;5056760;28;20440;-61
2023/08/26 10:26:12;;;;;;;2.60;1.40;;;22.10;54.70;;;;;;5056850;28;20433;-61
2023/08/26 10:28:42;;;;;;;2.30;1.33;;;22.10;55.10;;;;;;5056810;28;20460;-61
2023/08/26 10:31:09;;;;;;;5.00;1.60;;;22.10;55.20;;;;;;5057081;28;20872;-62
2023/08/26 10:34:01;;;;;;;2.73;1.37;;;21.90;55.60;;;;;;5056404;28;20997;-62
2023/08/26 10:36:28;;;;;;;2.10;1.40;;;22.00;56.20;;;;;;5056511;28;20432;-61
2023/08/26 10:38:56;;;;;;;2.90;1.20;;;22.00;56.10;;;;;;5056622;28;20471;-61
2023/08/26 10:41:23;;;;;;;6.90;1.50;;;22.00;56.20;;;;;;5056174;28;20758;-60
2023/08/26 10:43:55;;;;;;;4.10;1.50;;;22.00;56.30;;;;;;5055659;28;20443;-60
2023/08/26 10:46:33;;;;;;;1.60;1.23;;;22.00;56.10;;;;;;5055701;28;20961;-60
2023/08/26 10:49:00;;;;;;;2.30;1.10;;;22.00;56.20;;;;;;5056048;28;20459;-60
2023/08/26 10:51:28;;;;;;;1.63;1.17;;;22.00;55.80;;;;;;5055923;28;20531;-61
2023/08/26 10:54:02;;;;;;;2.80;1.50;;;22.10;55.70;;;;;;5056819;28;21032;-61
2023/08/26 10:56:33;;;;;;;3.50;1.53;;;22.20;55.80;;;;;;5056649;28;20510;-60
2023/08/26 10:59:03;;;;;;;1.90;1.60;;;22.30;55.90;;;;;;5056708;28;20460;-60
2023/08/26 11:01:34;;;;;;;2.07;1.33;;;22.50;55.60;;;;;;5055985;28;20429;-61
2023/08/26 11:04:01;;;;;;;5.10;1.57;;;22.60;55.50;;;;;;5055355;28;20421;-59
2023/08/26 11:06:28;;;;;;;4.23;1.80;;;22.70;54.90;;;;;;5055018;28;20435;-60
2023/08/26 11:08:56;;;;;;;1.10;1.00;;;22.70;54.40;;;;;;5055014;28;20575;-61
2023/08/26 11:11:23;;;;;;;2.93;2.00;;;22.90;53.90;;;;;;5055636;28;20440;-60
2023/08/26 11:13:49;;;;;;;3.03;1.70;;;23.20;53.50;;;;;;5055250;28;20476;-61
2023/08/26 11:16:18;;;;;;;2.87;1.50;;;23.40;53.30;;;;;;5055066;28;20470;-58
2023/08/26 11:18:45;;;;;;;3.57;1.33;;;23.50;53.00;;;;;;5055508;28;21060;-60
2023/08/26 11:21:13;;;;;;;4.00;1.50;;;23.50;52.90;;;;;;5054583;28;20527;-60
2023/08/26 11:23:41;;;;;;;3.30;1.50;;;23.50;52.70;;;;;;5054953;28;20926;-60
2023/08/26 11:26:08;;;;;;;2.63;1.67;;;23.40;52.50;;;;;;5055246;28;20448;-60
2023/08/26 11:28:35;;;;;;;2.67;1.57;;;23.30;52.90;;;;;;5054626;28;21051;-61
2023/08/26 11:31:03;;;;;;;3.70;1.83;;;23.20;53.00;;;;;;5055654;28;20440;-61
2023/08/26 11:33:31;;;;;;;3.77;1.60;;;23.10;53.20;;;;;;5054641;28;20973;-59
2023/08/26 11:35:58;;;;;;;1.93;1.73;;;22.80;53.20;;;;;;5054966;28;20941;-60
2023/08/26 11:38:25;;;;;;;2.30;1.47;;;22.60;53.20;;;;;;5055278;28;20477;-61
2023/08/26 11:40:51;;;;;;;4.10;1.60;;;22.50;53.60;;;;;;5055202;28;20815;-62
2023/08/26 11:43:18;;;;;;;3.60;1.40;;;22.20;53.50;;;;;;5056568;28;20440;-61
2023/08/26 11:45:47;;;;;;;2.80;1.40;;;22.10;54.00;;;;;;5057574;28;20649;-64
2023/08/26 11:48:15;;;;;;;3.70;1.47;;;22.40;54.00;;;;;;5058311;28;20463;-61
2023/08/26 11:50:45;;;;;;;3.57;1.80;;;22.80;52.90;;;;;;5058056;28;20448;-61
2023/08/26 11:53:12;;;;;;;3.70;1.80;;;23.00;52.00;;;;;;5057438;28;20576;-61
2023/08/26 11:55:39;;;;;;;5.40;1.73;;;23.10;52.00;;;;;;5056942;28;20454;-61
2023/08/26 11:58:07;;;;;;;2.60;1.30;;;23.20;52.00;;;;;;5055549;28;21031;-61
2023/08/26 12:00:37;;;;;;;2.40;1.43;;;23.60;51.10;;;;;;5057280;28;20452;-61
2023/08/26 12:03:06;;;;;;;3.00;1.50;;;23.90;50.50;;;;;;5055585;28;20444;-60
2023/08/26 12:05:45;;;;;;;3.30;1.43;;;24.20;49.90;;;;;;5054585;28;20477;-59
2023/08/26 12:08:16;;;;;;;3.30;1.37;;;24.50;49.40;;;;;;5054568;28;20475;-61
2023/08/26 12:10:46;;;;;;;3.17;1.50;;;24.40;49.10;;;;;;5055157;28;20458;-60
2023/08/26 12:13:13;;;;;;;4.37;1.50;;;24.10;49.40;;;;;;5056332;28;20472;-60
2023/08/26 12:15:41;;;;;;;2.80;1.70;;;23.80;49.90;;;;;;5056609;28;20470;-62
2023/08/26 12:18:09;;;;;;;4.93;1.83;;;23.70;49.40;;;;;;5056935;28;20464;-60
2023/08/26 12:20:36;;;;;;;3.53;1.40;;;23.90;49.20;;;;;;5054818;28;20440;-60
2023/08/26 12:23:06;;;;;;;2.20;1.40;;;24.20;49.10;;;;;;5055534;28;20436;-61
2023/08/26 12:25:36;;;;;;;3.30;1.97;;;24.20;49.20;;;;;;5054237;28;20444;-61
2023/08/26 12:28:08;;;;;;;2.60;1.97;;;24.10;49.60;;;;;;5054127;28;20463;-60
2023/08/26 12:30:35;;;;;;;3.33;1.40;;;23.90;50.30;;;;;;5054378;28;20447;-61
2023/08/26 12:33:02;;;;;;;5.43;1.53;;;23.70;50.40;;;;;;5057474;28;20487;-62
2023/08/26 12:35:29;;;;;;;2.33;1.37;;;23.50;49.90;;;;;;5058831;28;20451;-61
2023/08/26 12:37:56;;;;;;;1.83;1.20;;;23.40;49.80;;;;;;5058389;28;20842;-62
2023/08/26 12:40:24;;;;;;;2.70;1.50;;;23.40;49.40;;;;;;5058561;28;20446;-63
2023/08/26 12:42:52;;;;;;;2.80;1.30;;;23.40;49.10;;;;;;5058498;28;20450;-61